Skip Navigation Links
NOAA logo - Click to go to the NOAA homepage
NOAA's National Weather Service
Alaska Aviation Weather Unit
  NWS logo - Click to go to the NWS homepage
Left Navbar Graphic     08 AKDT = 16 GMT

   
NOAA is celebrating 200 years of science, service, and stewardship. Visit the NOAA 200th celebration Web site to learn more.
USA.gov is the U.S. Government's official Web portal to all Federal, state and local government Web resources and services.
Facebook
NWS on Facebook

Important Change Regarding the AAWU Web Presence

 

Over the last several months, the AAWU has been working to navigate its webpages to a nationally supported server. Security, as well as other needs, have necessitated the change.  In the process, we have made an effort to enhance the functionality of our website, as well as some of our products. As of June 20, 2017, aawu.arh.noaa.gov will be discontinued. The new AAWU web address is weather.gov/aawu. It is now live and will run in-parallel with the old site until it is discontinued. Please send any feedback or questions regarding the new webpages to nws.ar.aawu.webauthors@noaa.gov.  Thank you for your patience during this time of transition.
AAWU Home :: Display TAF Add Bookmark
TAF PAHN 231143Z 2312/2412 30006KT P6SM FEW015 BKN040
      TEMPO 2312/2316 00000KT 4SM BR BKN015
     FM231900 VRB04KT P6SM FEW020 SCT060
     FM232200 14006KT P6SM SCT060
      AMD LTD TO CLD VIS AND WIND=

METAR PAHN 231054Z AUTO 00000KT 9SM CLR 06/05 A2987 RMK AO2 SLP119 T00560050 TSNO= METAR PAHN 231154Z AUTO 31010KT 10SM CLR 07/05 A2985 RMK AO2 SLP111 T00670050 10083 20044 58015 TSNO= METAR PAHN 231254Z AUTO 31010G18KT 10SM CLR 07/06 A2984 RMK AO2 SLP107 T00720056 TSNO= METAR PAHN 231354Z AUTO 32009G18KT 10SM FEW110 08/06 A2983 RMK AO2 SLP105 T00780056 TSNO= METAR PAHN 231454Z AUTO 30010KT 10SM CLR 08/06 A2982 RMK AO2 SLP101 T00780056 58010 TSNO= METAR PAHN 231554Z AUTO 32012KT 10SM CLR 09/06 A2981 RMK AO2 SLP097 T00940056 TSNO=
 Alaska TAF Map

NOAA's National Weather Service
Alaska Aviation Weather Unit
6930 Sand Lake Road
Anchorage, AK 99502-1845
Disclaimer
Credits
Glossary
Privacy Policy
About Us
Career Opportunities
Contact AAWU Internet Services Site last modified: April, 17th 2012